x

Orange Beach - 44 Nm Se Of Mobile, Al (42012) Wave Buoy

5:50am - Mon 29th Dec 2014 All times are CST. -6 hours from GMT.

  • Sig Wave height 2.0ft
  • Swell Direction
  • Peak Period 3s
  • Average Period 4s
  • Wind
    16mph, 18mph gusts
  • Sea Temp 67°f
  • Air Temp 61°f
  • Sea Pressure 1016.8mb
  • Orange Beach - 44 Nm Se Of Mobile, Al
  • Orange Beach - 44 Nm Se Of Mobile, Al

More Historic Weather Station data

Upgrade to MSW Pro to gain access to the past 30 days of data for over 8000 Wavebouys and Weather Stations around the globe.

Join Pro

Comparision Forecast

View Surf forecast
   
Mon 12/29 5:50am 2ft 3s 4s 16 18 mph 1016.8mb 67f 61f
4:50am 2.5ft 4s 4s 16 20 mph 1016.4mb 68f 61f
3:50am 2.5ft 3s 4s 20 22 mph 1016.1mb 68f 61f
2:50am 2.5ft 4s 4s 20 25 mph 1015.8mb 68f 62f
1:50am 3ft 4s 4s 22 27 mph 1016mb 68f 62f
12:50am 2.5ft 3s 4s 29 36 mph 1016.1mb 68f 63f
Sun 12/28 11:50pm 2ft 6s 5s 18 22 mph 1016.5mb 68f 66f
10:50pm 2.5ft 5s 5s 11 13 mph 1016.9mb 68f 66f
9:50pm 2.5ft 7s 5s 13 16 mph 1016.9mb 67f 65f
8:50pm 2.5ft 7s 5s 4 7 mph 1016.4mb 67f 69f
7:50pm 2.5ft 5s 5s 4
mph
1016.3mb 67f 69f
6:50pm 2.5ft 7s 5s 7 9 mph 1016mb 67f 69f
5:50pm 2.5ft 5s 5s 7 9 mph 1015.8mb 68f 68f
4:50pm 2.5ft 5s 5s 9
mph
1015.8mb 68f 68f
3:50pm 3ft 5s 5s 4 7 mph 1016.4mb 68f 68f
2:50pm 3ft 5s 5s 11 13 mph 1016.1mb 69f 69f
1:50pm 3ft 5s 5s 2
mph
1016.1mb 69f 69f
12:50pm 3ft 6s 5s  -  2 mph 1016.5mb 69f 70f
11:50am 3.5ft 5s 5s 4 7 mph 1017.5mb 68f 70f
10:50am 3.5ft 7s 5s 7
mph
1018.6mb 68f 70f
9:50am 3.5ft 5s 5s 7 9 mph 1019.1mb 68f 71f
8:50am 3.5ft 7s 5s 11
mph
1018.9mb 68f 71f
7:50am 3.5ft 5s 5s 9 11 mph 1018.6mb 68f 71f
6:50am 4ft 5s 5s 11 13 mph 1018.1mb 68f 71f
5:50am 3.5ft 6s 5s 13 16 mph 1017.7mb 68f 71f
4:50am 3.5ft 6s 5s 11 13 mph 1017.5mb 68f 71f
3:50am 3.5ft 5s 5s 11 13 mph 1017.3mb 68f 70f
2:50am 3.5ft 6s 5s 9 11 mph 1017.6mb 68f 70f
1:50am 4ft 5s 5s 11 13 mph 1017.6mb 68f 70f
12:50am 4ft 6s 5s 13 18 mph 1017.8mb 68f 69f
Sat 12/27 11:50pm 4ft 5s 5s 16 18 mph 1018.4mb 68f 69f
10:50pm 3.5ft 6s 5s 16 18 mph 1019.1mb 68f 69f
9:50pm 4.5ft 5s 5s 13 18 mph 1019.5mb 68f 69f
8:50pm 4ft 5s 5s 18 20 mph 1020.2mb 68f 69f
7:50pm 4.5ft 5s 4s 18 20 mph 1020mb 68f 68f
6:50pm 4ft 5s 4s 16 20 mph 1020mb 68f 67f
5:50pm 4ft 6s 4s 16 18 mph 1019.7mb 68f 67f
4:50pm 3.5ft 6s 5s 16 18 mph 1019.4mb 68f 67f
3:50pm 4ft 5s 5s 9 11 mph 1019.3mb 68f 69f
2:50pm 4ft 6s 5s 4
mph
1020.2mb 68f 70f
1:50pm 3.5ft 6s 5s 11 13 mph 1019.4mb 68f 69f
12:50pm 3.5ft 6s 4s 16 18 mph 1019.5mb 68f 70f
11:50am 3.5ft 6s 4s 18 20 mph 1020.2mb 68f 70f
10:50am 3.5ft 5s 4s 16 20 mph 1021.5mb 68f 69f
9:50am 3.5ft 6s 4s 18 22 mph 1022.4mb 68f 69f
8:50am 4ft 5s 5s 18 20 mph 1022.1mb 68f 69f
7:50am 4ft 6s 5s 16 20 mph 1022.1mb 68f 68f
6:50am 4ft 5s 4s 13 18 mph 1021.9mb 68f 68f
5:50am 3.5ft 5s 4s 16 20 mph 1021.4mb 68f 67f
4:50am 4ft 5s 4s 16 20 mph 1021mb 68f 67f
3:50am 4ft 5s 4s 18 22 mph 1020.7mb 68f 67f
2:50am 4ft 5s 4s 18 22 mph 1020.8mb 68f 67f
1:50am 4ft 5s 4s 18 22 mph 1020.7mb 68f 66f
12:50am 4.5ft 5s 4s 20 22 mph 1021mb 68f 66f
Fri 12/26 11:50pm 3.5ft 5s 4s 22 25 mph 1020.7mb 68f 66f
10:50pm 3.5ft 5s 4s 22 27 mph 1021.5mb 68f 65f
9:50pm 3.5ft 5s 4s 22 27 mph 1022.1mb 68f 65f
8:50pm 3.5ft 5s 4s 20 22 mph 1022.6mb 68f 64f
7:50pm 3ft 4s 4s 18 22 mph 1023mb 68f 64f
6:50pm 3ft 5s 4s 18 20 mph 1022.9mb 68f 64f
5:50pm 3.5ft 4s 4s 18 20 mph 1022.5mb 68f 64f
4:50pm 3.5ft 5s 4s 20 22 mph 1021.8mb 68f 63f
3:50pm 3.5ft 5s 4s 20 22 mph 1021.6mb 68f 63f
2:50pm 3.5ft 4s 4s 20 25 mph 1021.6mb 68f 62f
1:50pm 2.5ft 4s 4s 20 25 mph 1022.2mb 68f 62f
12:50pm 2.5ft 4s 4s 20 22 mph 1022.2mb 68f 62f
11:50am 2.5ft 4s 4s 16 20 mph 1022.9mb 68f 62f
10:50am 2.5ft 4s 4s 11 13 mph 1024mb 68f 65f
9:50am 2.5ft 4s 4s 11 13 mph 1024.4mb 68f 65f
8:50am 2.5ft 4s 4s 9 11 mph 1023.9mb 68f 65f
7:50am 2.5ft 4s 4s 11 16 mph 1023mb 68f 63f
6:50am 2.5ft 4s 4s 16 20 mph 1022.1mb 68f 63f
5:50am 2.5ft 4s 4s 16 18 mph 1021.8mb 67f 63f
4:50am 2.5ft 4s 4s 16 18 mph 1021.5mb 67f 62f
3:50am 2ft 3s 4s 16 18 mph 1021.5mb 67f 62f
2:50am 1.6ft 3s 4s 18 22 mph 1021.8mb 67f 61f
1:50am 1.6ft 8s 4s 13 18 mph 1022.3mb 67f 60f
12:50am 1.6ft 8s 4s 13 18 mph 1022.2mb 67f 59f
Thu 12/25 11:50pm 1.3ft 8s 5s 11 16 mph 1022.8mb 67f 59f
10:50pm 1.3ft 8s 6s 9 13 mph 1023.4mb 67f 58f
9:50pm 1.6ft 8s 6s 9 13 mph 1023.6mb 66f 57f
8:50pm 1.6ft 8s 6s 7 9 mph 1023.7mb 66f 56f
7:50pm 1.6ft 8s 6s 4 7 mph 1023.9mb 65f 56f
6:50pm 1.6ft 8s 6s 2 7 mph 1023.5mb 65f 55f
5:50pm 1.6ft 8s 6s  -  2 mph 1023.7mb 65f 54f
4:50pm 2ft 8s 6s  -  2 mph 1023.6mb 65f 55f
3:50pm 1.6ft 7s 6s 2 4 mph 1023.4mb 65f 56f
2:50pm 2ft 8s 6s 4 9 mph 1023.3mb 66f 55f
1:50pm 2ft 8s 6s 4 9 mph 1023.1mb 66f 53f